createdAt,value
2018-11-26T00:00:46.411Z,19.80
2018-11-26T00:03:14.799Z,18.23
2018-11-26T00:05:43.127Z,19.90
2018-11-26T00:08:12.523Z,19.00
2018-11-26T00:10:52.077Z,17.93
2018-11-26T00:13:20.392Z,19.17
2018-11-26T00:15:48.706Z,19.70
2018-11-26T00:18:17.126Z,18.17
2018-11-26T00:20:45.474Z,18.70
2018-11-26T00:23:13.805Z,18.90
2018-11-26T00:25:42.139Z,18.43
2018-11-26T00:28:11.152Z,18.63
2018-11-26T00:30:39.689Z,18.20
2018-11-26T00:33:08.032Z,19.73
2018-11-26T00:35:36.441Z,18.53
2018-11-26T00:38:05.020Z,18.95
2018-11-26T00:40:33.331Z,19.47
2018-11-26T00:43:01.681Z,18.87
2018-11-26T00:45:30.025Z,22.50
2018-11-26T00:47:58.440Z,18.40
2018-11-26T00:50:26.751Z,17.90
2018-11-26T00:52:55.096Z,17.60
2018-11-26T00:55:23.429Z,19.40
2018-11-26T00:57:51.916Z,19.43
2018-11-26T01:00:20.415Z,20.20
2018-11-26T01:02:48.839Z,18.33
2018-11-26T01:05:32.660Z,19.13
2018-11-26T01:08:00.990Z,19.17
2018-11-26T01:10:29.389Z,18.50
2018-11-26T01:12:57.748Z,18.50
2018-11-26T01:15:26.187Z,17.73
2018-11-26T01:17:54.508Z,18.32
2018-11-26T01:20:22.892Z,18.67
2018-11-26T01:22:51.269Z,17.13
2018-11-26T01:25:19.588Z,20.30
2018-11-26T01:27:47.919Z,18.12
2018-11-26T01:30:19.139Z,18.00
2018-11-26T01:32:47.448Z,17.87
2018-11-26T01:35:15.748Z,18.73
2018-11-26T01:37:45.017Z,19.80
2018-11-26T01:40:20.648Z,20.10
2018-11-26T01:42:49.240Z,19.07
2018-11-26T01:45:17.617Z,17.83
2018-11-26T01:47:45.941Z,19.98
2018-11-26T01:50:14.258Z,19.00
2018-11-26T01:52:42.577Z,18.90
2018-11-26T01:55:11.376Z,18.87
2018-11-26T01:57:39.654Z,19.57
2018-11-26T02:00:22.506Z,17.60
2018-11-26T02:02:50.773Z,19.50
2018-11-26T02:05:19.096Z,18.10
2018-11-26T02:07:47.434Z,18.47
2018-11-26T02:10:16.903Z,18.60
2018-11-26T02:12:45.251Z,18.47
2018-11-26T02:15:35.254Z,20.03
2018-11-26T02:18:03.652Z,18.27
2018-11-26T02:20:32.010Z,19.27
2018-11-26T02:23:00.491Z,18.07
2018-11-26T02:25:28.838Z,19.37
2018-11-26T02:27:57.280Z,18.63
2018-11-26T02:30:26.581Z,19.97
2018-11-26T02:32:55.048Z,17.80
2018-11-26T02:35:23.391Z,19.90
2018-11-26T02:37:52.606Z,21.13
2018-11-26T02:40:25.536Z,19.50
2018-11-26T02:42:53.903Z,21.20
2018-11-26T02:45:22.237Z,19.90
2018-11-26T02:47:50.580Z,19.13
2018-11-26T02:50:19.024Z,18.77
2018-11-26T02:52:47.346Z,19.40
2018-11-26T02:55:15.733Z,19.50
2018-11-26T02:57:44.129Z,19.07
2018-11-26T03:00:13.082Z,19.10
2018-11-26T03:02:41.436Z,19.17
2018-11-26T03:05:19.017Z,20.13
2018-11-26T03:07:47.360Z,17.77
2018-11-26T03:10:15.808Z,18.30
2018-11-26T03:12:44.154Z,18.87
2018-11-26T03:15:14.022Z,19.73
2018-11-26T03:17:42.413Z,19.07
2018-11-26T03:20:10.947Z,17.63
2018-11-26T03:22:39.249Z,17.85
2018-11-26T03:25:10.027Z,18.27
2018-11-26T03:27:38.419Z,19.77
2018-11-26T03:30:12.294Z,20.03
2018-11-26T03:32:40.580Z,17.63
2018-11-26T03:35:09.831Z,20.20
2018-11-26T03:37:38.152Z,18.25
2018-11-26T03:40:09.761Z,19.40
2018-11-26T03:42:38.113Z,18.13
2018-11-26T03:45:10.038Z,18.67
2018-11-26T03:47:38.547Z,37.57
2018-11-26T03:50:07.096Z,21.90
2018-11-26T03:52:35.485Z,18.60
2018-11-26T03:55:03.885Z,20.33
2018-11-26T03:57:32.189Z,19.67
2018-11-26T04:00:00.556Z,18.23
2018-11-26T04:02:28.813Z,18.57
2018-11-26T04:04:57.185Z,17.87
2018-11-26T04:07:25.596Z,18.37
2018-11-26T04:09:53.916Z,19.80
2018-11-26T04:12:22.251Z,19.73
2018-11-26T04:14:50.545Z,19.27
2018-11-26T04:17:18.828Z,21.17
2018-11-26T04:19:47.153Z,19.13
2018-11-26T04:22:15.488Z,24.93
2018-11-26T04:24:43.785Z,20.80
2018-11-26T04:27:12.144Z,20.40
2018-11-26T04:29:40.456Z,19.60
2018-11-26T04:32:08.792Z,18.03
2018-11-26T04:34:37.174Z,18.53
2018-11-26T04:37:05.809Z,20.33
2018-11-26T04:39:34.075Z,20.50
2018-11-26T04:42:02.356Z,19.10
2018-11-26T04:44:30.765Z,21.00
2018-11-26T04:46:59.049Z,19.43
2018-11-26T04:49:27.452Z,18.83
2018-11-26T04:51:55.811Z,19.87
2018-11-26T04:54:24.188Z,20.30
2018-11-26T04:56:52.617Z,17.80
2018-11-26T04:59:21.009Z,17.98
2018-11-26T05:01:49.328Z,18.53
2018-11-26T05:04:18.367Z,19.93
2018-11-26T05:06:46.669Z,18.97
2018-11-26T05:09:15.014Z,19.32
2018-11-26T05:11:43.322Z,18.53
2018-11-26T05:14:11.675Z,19.32
2018-11-26T05:16:40.020Z,19.23
2018-11-26T05:19:08.333Z,19.80
2018-11-26T05:21:36.685Z,21.00
2018-11-26T05:24:05.039Z,17.67
2018-11-26T05:26:33.322Z,19.17
2018-11-26T05:29:01.672Z,20.83
2018-11-26T05:31:30.078Z,19.77
2018-11-26T05:33:58.360Z,19.30
2018-11-26T05:36:26.680Z,18.53
2018-11-26T05:38:55.006Z,19.53
2018-11-26T05:41:23.286Z,18.43
2018-11-26T05:43:51.694Z,18.70
2018-11-26T05:46:19.968Z,21.83
2018-11-26T05:48:48.336Z,23.53
2018-11-26T05:51:16.771Z,20.00
2018-11-26T05:53:45.182Z,18.90
2018-11-26T05:56:13.495Z,18.17
2018-11-26T05:58:41.872Z,20.68
2018-11-26T06:01:10.189Z,19.90
2018-11-26T06:03:38.600Z,19.03
2018-11-26T06:06:06.944Z,19.60
2018-11-26T06:08:35.423Z,20.83
2018-11-26T06:11:03.808Z,18.75
2018-11-26T06:13:32.389Z,20.13
2018-11-26T06:16:00.744Z,17.23
2018-11-26T06:18:29.075Z,19.20
2018-11-26T06:20:57.347Z,17.95
2018-11-26T06:23:25.623Z,19.10
2018-11-26T06:25:53.920Z,17.43
2018-11-26T06:28:22.235Z,17.80
2018-11-26T06:30:50.671Z,19.17
2018-11-26T06:33:19.092Z,18.60
2018-11-26T06:35:47.422Z,18.67
2018-11-26T06:38:15.864Z,19.37
2018-11-26T06:40:44.285Z,20.20
2018-11-26T06:43:12.536Z,20.40
2018-11-26T06:45:40.912Z,19.40
2018-11-26T06:48:09.229Z,17.70
2018-11-26T06:50:37.588Z,20.12
2018-11-26T06:53:06.476Z,18.90
2018-11-26T06:55:34.960Z,18.83
2018-11-26T06:58:03.250Z,17.87
2018-11-26T07:00:31.618Z,18.07
2018-11-26T07:02:59.965Z,18.33
2018-11-26T07:05:28.284Z,18.70
2018-11-26T07:07:56.632Z,18.93
2018-11-26T07:10:24.964Z,20.10
2018-11-26T07:12:53.410Z,21.40
2018-11-26T07:15:22.527Z,22.30
2018-11-26T07:17:51.094Z,21.90
2018-11-26T07:20:21.109Z,19.63
2018-11-26T07:22:49.493Z,20.47
2018-11-26T07:25:19.410Z,20.70
2018-11-26T07:27:50.954Z,22.93
2018-11-26T07:30:21.356Z,20.37
2018-11-26T07:32:49.734Z,20.13
2018-11-26T07:35:18.047Z,19.70
2018-11-26T07:37:46.446Z,20.77
2018-11-26T07:40:18.883Z,17.87
2018-11-26T07:42:51.833Z,20.10
2018-11-26T07:45:20.248Z,19.47
2018-11-26T07:47:48.626Z,19.23
2018-11-26T07:50:17.428Z,19.70
2018-11-26T07:52:45.804Z,20.57
2018-11-26T07:55:16.316Z,18.77
2018-11-26T07:57:44.713Z,18.57
2018-11-26T08:00:14.837Z,19.50
2018-11-26T08:02:43.520Z,18.90
2018-11-26T08:05:12.861Z,18.70
2018-11-26T08:07:41.245Z,18.10
2018-11-26T08:10:11.756Z,18.57
2018-11-26T08:12:40.108Z,19.93
2018-11-26T08:15:16.624Z,34.07
2018-11-26T08:17:45.074Z,28.47
2018-11-26T08:20:13.438Z,18.10
2018-11-26T08:22:41.744Z,17.67
2018-11-26T08:25:11.278Z,18.70
2018-11-26T08:27:39.848Z,19.20
2018-11-26T08:30:17.164Z,20.30
2018-11-26T08:32:46.733Z,19.37
2018-11-26T08:35:16.039Z,18.53
2018-11-26T08:37:49.571Z,18.67
2018-11-26T08:40:27.273Z,17.10
2018-11-26T08:43:59.792Z,18.42
2018-11-26T08:46:32.548Z,17.70
2018-11-26T08:49:06.979Z,18.17
2018-11-26T08:51:35.685Z,15.90
2018-11-26T08:54:04.117Z,17.53
2018-11-26T08:56:32.486Z,18.97
2018-11-26T08:59:00.829Z,17.00
2018-11-26T09:01:33.182Z,18.87
2018-11-26T09:04:08.965Z,17.83
2018-11-26T09:06:37.555Z,17.93
2018-11-26T09:09:09.183Z,18.60
2018-11-26T09:11:37.491Z,17.83
2018-11-26T09:14:06.660Z,19.55
2018-11-26T09:16:35.461Z,19.63
2018-11-26T09:19:03.806Z,17.07
2018-11-26T09:21:35.058Z,17.70
2018-11-26T09:24:03.431Z,18.40
2018-11-26T09:26:31.776Z,18.43
2018-11-26T09:29:00.052Z,17.23
2018-11-26T09:31:28.392Z,16.82
2018-11-26T09:33:56.755Z,18.93
2018-11-26T09:36:25.106Z,19.50
2018-11-26T09:38:53.573Z,16.03
2018-11-26T09:41:21.969Z,16.33
2018-11-26T09:43:50.355Z,16.12
2018-11-26T09:46:18.737Z,14.43
2018-11-26T09:48:47.044Z,14.30
2018-11-26T09:51:15.379Z,16.62
2018-11-26T09:53:43.703Z,13.83
2018-11-26T09:56:11.993Z,16.50
2018-11-26T09:58:40.373Z,16.87
2018-11-26T10:01:08.736Z,15.85
2018-11-26T10:03:37.157Z,14.90
2018-11-26T10:06:05.999Z,18.12
2018-11-26T10:08:34.422Z,15.90
2018-11-26T10:11:02.717Z,16.35
2018-11-26T10:13:31.193Z,16.13
2018-11-26T10:15:59.612Z,17.70
2018-11-26T10:18:27.941Z,15.60
2018-11-26T10:23:21.206Z,17.30
2018-11-26T10:25:49.539Z,16.50
2018-11-26T10:28:17.882Z,17.00
2018-11-26T10:30:46.317Z,16.33
2018-11-26T10:33:15.076Z,15.33
2018-11-26T10:35:43.080Z,17.00
2018-11-26T10:38:11.442Z,17.80
2018-11-26T10:40:39.841Z,16.37
2018-11-26T10:43:11.725Z,15.23
2018-11-26T10:45:37.055Z,15.73
2018-11-26T10:48:06.251Z,16.40
2018-11-26T10:50:34.770Z,15.77
2018-11-26T10:53:03.194Z,15.10
2018-11-26T10:55:33.508Z,14.07
2018-11-26T10:58:02.153Z,13.90
2018-11-26T11:00:35.895Z,13.37
2018-11-26T11:03:04.389Z,12.97
2018-11-26T11:05:32.816Z,13.60
2018-11-26T11:08:01.230Z,14.30
2018-11-26T11:10:30.563Z,14.20
2018-11-26T11:12:58.950Z,13.60
2018-11-26T11:15:27.371Z,13.37
2018-11-26T11:17:55.791Z,14.00
2018-11-26T11:20:26.629Z,14.10
2018-11-26T11:22:54.970Z,14.67
2018-11-26T11:25:23.541Z,16.23
2018-11-26T11:27:52.113Z,12.80
2018-11-26T11:30:25.126Z,14.53
2018-11-26T11:32:53.540Z,13.37
2018-11-26T11:35:21.982Z,13.10
2018-11-26T11:37:51.198Z,13.00
2018-11-26T11:40:28.353Z,13.33
2018-11-26T11:42:57.328Z,13.50
2018-11-26T11:45:26.185Z,14.60
2018-11-26T11:47:54.542Z,13.03
2018-11-26T11:50:23.109Z,11.20
2018-11-26T11:52:51.788Z,13.37
2018-11-26T11:55:21.206Z,13.50
2018-11-26T11:57:49.608Z,11.90
2018-11-26T12:00:30.043Z,13.50
2018-11-26T12:02:58.932Z,13.17
2018-11-26T12:05:27.295Z,19.83
2018-11-26T12:07:55.699Z,13.57
2018-11-26T12:10:24.049Z,12.10
2018-11-26T12:12:52.373Z,12.67
2018-11-26T12:15:20.768Z,12.43
2018-11-26T12:17:49.575Z,12.53
2018-11-26T12:20:18.014Z,11.77
2018-11-26T12:22:46.593Z,12.17
2018-11-26T12:25:17.888Z,12.33
2018-11-26T12:27:46.391Z,12.83
2018-11-26T12:30:18.926Z,13.47
2018-11-26T12:32:47.265Z,12.40
2018-11-26T12:35:15.661Z,11.67
2018-11-26T12:37:44.127Z,13.83
2018-11-26T12:40:14.162Z,12.70
2018-11-26T12:42:42.611Z,12.67
2018-11-26T12:45:12.743Z,12.33
2018-11-26T12:47:41.093Z,13.70
2018-11-26T12:50:09.477Z,12.47
2018-11-26T12:52:38.793Z,12.40
2018-11-26T12:55:10.024Z,16.60
2018-11-26T12:57:39.156Z,12.90
2018-11-26T13:00:11.362Z,12.63
2018-11-26T13:02:39.784Z,13.17
2018-11-26T13:05:10.220Z,12.80
2018-11-26T13:07:38.586Z,12.50
2018-11-26T13:10:09.149Z,14.90
2018-11-26T13:12:37.507Z,13.00
2018-11-26T13:15:09.056Z,14.60
2018-11-26T13:17:37.417Z,12.77
2018-11-26T13:20:08.994Z,13.47
2018-11-26T13:22:37.483Z,14.00
2018-11-26T13:25:07.090Z,11.50
2018-11-26T13:27:35.462Z,13.83
2018-11-26T13:30:04.263Z,15.17
2018-11-26T13:32:32.725Z,14.93
2018-11-26T13:35:01.039Z,13.93
2018-11-26T13:37:29.449Z,16.37
2018-11-26T13:39:57.765Z,15.50
2018-11-26T13:42:26.149Z,15.70
2018-11-26T13:44:54.525Z,15.87
2018-11-26T13:47:22.898Z,15.63
2018-11-26T13:49:51.191Z,14.57
2018-11-26T13:52:19.694Z,14.20
2018-11-26T13:54:48.005Z,14.90
2018-11-26T13:57:16.494Z,14.63
2018-11-26T13:59:44.813Z,13.90
2018-11-26T14:02:13.228Z,16.60
2018-11-26T14:04:41.561Z,17.80
2018-11-26T14:07:09.897Z,21.07
2018-11-26T14:09:38.257Z,14.63
2018-11-26T14:12:06.609Z,15.93
2018-11-26T14:14:34.985Z,16.27
2018-11-26T14:17:03.367Z,16.63
2018-11-26T14:19:31.693Z,17.30
2018-11-26T14:22:00.072Z,16.23
2018-11-26T14:24:28.705Z,15.97
2018-11-26T14:26:57.063Z,16.27
2018-11-26T14:29:25.782Z,16.40
2018-11-26T14:31:53.998Z,18.63
2018-11-26T14:34:22.443Z,16.30
2018-11-26T14:36:50.827Z,17.23
2018-11-26T14:39:19.182Z,16.27
2018-11-26T14:41:47.601Z,16.40
2018-11-26T14:44:16.013Z,17.83
2018-11-26T14:46:44.397Z,16.77
2018-11-26T14:49:12.868Z,18.40
2018-11-26T14:51:41.264Z,18.07
2018-11-26T14:54:09.655Z,17.90
2018-11-26T14:56:38.027Z,16.60
2018-11-26T14:59:06.653Z,16.40
2018-11-26T15:01:35.024Z,15.43
2018-11-26T15:04:03.350Z,17.50
2018-11-26T15:06:31.767Z,16.93
2018-11-26T15:09:00.087Z,16.83
2018-11-26T15:11:28.565Z,16.40
2018-11-26T15:13:56.935Z,15.27
2018-11-26T15:16:25.288Z,16.87
2018-11-26T15:18:53.688Z,16.43
2018-11-26T15:21:22.083Z,15.57
2018-11-26T15:23:50.481Z,18.77
2018-11-26T15:26:18.843Z,15.17
2018-11-26T15:28:47.346Z,15.17
2018-11-26T15:31:15.745Z,17.37
2018-11-26T15:33:44.129Z,15.53
2018-11-26T15:36:12.502Z,15.20
2018-11-26T15:38:47.512Z,16.30
2018-11-26T15:41:16.009Z,15.30
2018-11-26T15:43:44.386Z,13.97
2018-11-26T15:46:12.765Z,14.07
2018-11-26T15:48:41.122Z,18.50
2018-11-26T15:51:09.480Z,15.70
2018-11-26T15:53:37.835Z,15.27
2018-11-26T15:56:06.485Z,15.73
2018-11-26T15:58:35.067Z,14.33
2018-11-26T16:01:03.501Z,15.73
2018-11-26T16:03:31.831Z,16.30
2018-11-26T16:06:00.182Z,13.63
2018-11-26T16:08:28.576Z,15.83
2018-11-26T16:10:56.962Z,19.10
2018-11-26T16:13:25.381Z,17.33
2018-11-26T16:15:53.763Z,15.67
2018-11-26T16:18:22.444Z,16.60
2018-11-26T16:20:51.218Z,17.90
2018-11-26T16:23:19.588Z,17.47
2018-11-26T16:25:48.577Z,17.90
2018-11-26T16:28:20.374Z,16.70
2018-11-26T16:30:48.959Z,16.37
2018-11-26T16:33:17.448Z,16.70
2018-11-26T16:35:45.889Z,16.13
2018-11-26T16:38:14.398Z,23.13
2018-11-26T16:40:42.851Z,19.27
2018-11-26T16:43:11.209Z,18.53
2018-11-26T16:45:39.745Z,18.93
2018-11-26T16:48:08.249Z,20.03
2018-11-26T16:50:37.213Z,21.37
2018-11-26T16:53:06.514Z,20.93
2018-11-26T16:55:34.850Z,22.00
2018-11-26T16:58:03.224Z,20.87
2018-11-26T17:00:31.758Z,19.13
2018-11-26T17:03:02.493Z,19.53
2018-11-26T17:05:40.265Z,18.00
2018-11-26T17:08:10.078Z,20.53
2018-11-26T17:10:38.454Z,17.70
2018-11-26T17:13:07.070Z,19.90
2018-11-26T17:15:35.494Z,20.40
2018-11-26T17:18:03.927Z,19.53
2018-11-26T17:20:32.374Z,20.30
2018-11-26T17:23:00.785Z,19.63
2018-11-26T17:25:29.150Z,20.17
2018-11-26T17:27:57.541Z,18.80
2018-11-26T17:30:27.073Z,19.67
2018-11-26T17:33:00.335Z,22.50
2018-11-26T17:35:29.183Z,20.40
2018-11-26T17:37:57.524Z,21.97
2018-11-26T17:40:26.353Z,19.93
2018-11-26T17:42:55.078Z,22.17
2018-11-26T17:45:24.275Z,19.87
2018-11-26T17:47:55.573Z,20.80
2018-11-26T17:50:40.319Z,20.93
2018-11-26T17:53:10.488Z,22.13
2018-11-26T17:55:44.530Z,23.53
2018-11-26T17:58:12.986Z,23.50
2018-11-26T18:00:41.367Z,22.37
2018-11-26T18:03:09.707Z,26.87
2018-11-26T18:05:38.118Z,24.57
2018-11-26T18:08:09.609Z,22.83
2018-11-26T18:10:38.805Z,24.50
2018-11-26T18:13:07.409Z,23.10
2018-11-26T18:15:35.874Z,26.03
2018-11-26T18:18:04.830Z,24.73
2018-11-26T18:20:33.305Z,22.00
2018-11-26T18:23:01.665Z,25.63
2018-11-26T18:25:30.003Z,23.83
2018-11-26T18:28:03.877Z,22.97
2018-11-26T18:30:35.845Z,22.40
2018-11-26T18:33:04.255Z,26.03
2018-11-26T18:35:32.684Z,22.93
2018-11-26T18:38:01.010Z,23.57
2018-11-26T18:40:29.322Z,24.10
2018-11-26T18:42:57.679Z,23.90
2018-11-26T18:45:26.109Z,24.60
2018-11-26T18:47:54.481Z,24.30
2018-11-26T18:50:22.938Z,23.10
2018-11-26T18:52:57.944Z,22.33
2018-11-26T18:55:26.390Z,22.07
2018-11-26T18:57:54.838Z,25.43
2018-11-26T19:00:25.503Z,26.73
2018-11-26T19:02:54.605Z,23.57
2018-11-26T19:05:23.197Z,22.00
2018-11-26T19:07:51.592Z,22.60
2018-11-26T19:10:23.029Z,22.47
2018-11-26T19:12:59.023Z,22.80
2018-11-26T19:15:33.117Z,21.63
2018-11-26T19:18:06.869Z,25.00
2018-11-26T19:20:35.341Z,23.97
2018-11-26T19:23:03.772Z,25.37
2018-11-26T19:25:32.184Z,25.23
2018-11-26T19:28:00.578Z,22.67
2018-11-26T19:30:28.991Z,31.27
2018-11-26T19:32:57.493Z,24.83
2018-11-26T19:35:25.910Z,23.70
2018-11-26T19:37:54.277Z,21.23
2018-11-26T19:40:22.714Z,21.17
2018-11-26T19:42:51.217Z,21.23
2018-11-26T19:45:20.692Z,26.70
2018-11-26T19:47:49.015Z,24.03
2018-11-26T19:50:18.459Z,24.67
2018-11-26T19:52:47.961Z,25.13
2018-11-26T19:55:19.481Z,25.10
2018-11-26T19:57:47.884Z,26.93
2018-11-26T20:00:17.722Z,25.40
2018-11-26T20:02:50.952Z,25.97
2018-11-26T20:05:58.189Z,25.90
2018-11-26T20:08:26.740Z,22.27
2018-11-26T20:10:55.315Z,22.67
2018-11-26T20:13:23.681Z,26.70
2018-11-26T20:15:52.942Z,25.20
2018-11-26T20:18:21.007Z,23.70
2018-11-26T20:20:49.415Z,26.93
2018-11-26T20:23:17.814Z,28.83
2018-11-26T20:25:46.291Z,26.47
2018-11-26T20:28:14.628Z,28.80
2018-11-26T20:30:43.032Z,24.80
2018-11-26T20:33:11.365Z,25.43
2018-11-26T20:35:39.831Z,25.83
2018-11-26T20:38:09.762Z,24.67
2018-11-26T20:40:38.476Z,27.30
2018-11-26T20:43:08.870Z,22.70
2018-11-26T20:45:38.042Z,26.70
2018-11-26T20:48:07.326Z,27.13
2018-11-26T20:50:36.626Z,26.77
2018-11-26T20:53:04.983Z,27.60
2018-11-26T20:55:33.311Z,25.70
2018-11-26T20:58:01.670Z,24.13
2018-11-26T21:00:30.070Z,22.97
2018-11-26T21:03:04.994Z,22.90
2018-11-26T21:05:33.401Z,24.73
2018-11-26T21:08:01.847Z,22.60
2018-11-26T21:10:30.260Z,26.07
2018-11-26T21:12:58.781Z,21.73
2018-11-26T21:15:27.282Z,21.13
2018-11-26T21:17:56.812Z,23.10
2018-11-26T21:20:31.165Z,18.70
2018-11-26T21:23:00.409Z,23.70
2018-11-26T21:25:28.774Z,25.13
2018-11-26T21:27:57.168Z,20.13
2018-11-26T21:30:25.580Z,21.40
2018-11-26T21:32:54.029Z,23.77
2018-11-26T21:35:22.400Z,19.80
2018-11-26T21:37:51.707Z,17.80
2018-11-26T21:40:28.596Z,20.00
2018-11-26T21:42:58.664Z,29.47
2018-11-26T21:45:29.909Z,22.30
2018-11-26T21:47:58.328Z,22.20
2018-11-26T21:50:26.680Z,18.97
2018-11-26T21:52:55.134Z,19.53
2018-11-26T21:55:23.531Z,19.83
2018-11-26T21:57:51.943Z,19.40
2018-11-26T22:00:25.432Z,18.80
2018-11-26T22:02:54.157Z,20.10
2018-11-26T22:05:22.707Z,16.67
2018-11-26T22:07:51.107Z,17.87
2018-11-26T22:10:20.681Z,20.27
2018-11-26T22:12:50.418Z,18.63
2018-11-26T22:15:19.019Z,18.90
2018-11-26T22:17:47.462Z,19.83
2018-11-26T22:20:20.902Z,17.63
2018-11-26T22:22:49.299Z,19.23
2018-11-26T22:25:18.824Z,21.40
2018-11-26T22:27:46.245Z,19.20
2018-11-26T22:30:20.530Z,16.43
2018-11-26T22:32:49.045Z,16.13
2018-11-26T22:35:17.430Z,17.73
2018-11-26T22:37:45.967Z,16.63
2018-11-26T22:40:20.181Z,17.23
2018-11-26T22:42:48.655Z,19.57
2018-11-26T22:45:21.053Z,17.90
2018-11-26T22:47:51.499Z,18.10
2018-11-26T22:50:20.022Z,16.90
2018-11-26T22:52:48.454Z,17.37
2018-11-26T22:55:16.829Z,17.50
2018-11-26T22:57:45.803Z,18.30
2018-11-26T23:00:24.373Z,15.93
2018-11-26T23:02:54.942Z,18.87
2018-11-26T23:05:23.354Z,18.87
2018-11-26T23:07:51.721Z,20.30
2018-11-26T23:10:20.153Z,17.80
2018-11-26T23:12:49.618Z,16.80
2018-11-26T23:15:18.343Z,17.00
2018-11-26T23:17:47.284Z,18.90
2018-11-26T23:20:18.168Z,19.63
2018-11-26T23:22:46.621Z,17.20
2018-11-26T23:25:17.087Z,19.97
2018-11-26T23:27:45.498Z,18.13
2018-11-26T23:30:22.651Z,17.93
2018-11-26T23:32:56.002Z,18.20
2018-11-26T23:35:24.377Z,21.43
2018-11-26T23:37:52.746Z,24.67
2018-11-26T23:40:21.191Z,19.03
2018-11-26T23:42:49.598Z,17.83
2018-11-26T23:45:18.908Z,20.20
2018-11-26T23:47:47.357Z,19.17
2018-11-26T23:50:16.388Z,19.53
2018-11-26T23:52:45.162Z,17.83
2018-11-26T23:55:16.642Z,17.93
2018-11-26T23:57:44.973Z,16.43
